createdAt,value
2022-10-22T00:00:19.493Z,13.93
2022-10-22T00:01:19.516Z,13.91
2022-10-22T00:02:19.578Z,13.93
2022-10-22T00:03:19.572Z,13.99
2022-10-22T00:04:19.600Z,14.09
2022-10-22T00:05:19.627Z,14.03
2022-10-22T00:06:19.652Z,14.02
2022-10-22T00:07:19.701Z,14.02
2022-10-22T00:08:19.709Z,14.02
2022-10-22T00:09:19.843Z,14.09
2022-10-22T00:10:19.763Z,14.03
2022-10-22T00:11:19.794Z,14.02
2022-10-22T00:12:19.819Z,14.06
2022-10-22T00:13:19.847Z,14.08
2022-10-22T00:14:19.873Z,14.02
2022-10-22T00:15:19.898Z,14.02
2022-10-22T00:16:19.925Z,14.03
2022-10-22T00:17:19.953Z,13.97
2022-10-22T00:18:19.982Z,14.13
2022-10-22T00:19:20.007Z,14.06
2022-10-22T00:20:20.033Z,14.16
2022-10-22T00:21:20.064Z,14.12
2022-10-22T00:22:20.090Z,14.12
2022-10-22T00:23:20.163Z,14.06
2022-10-22T00:24:20.144Z,14.02
2022-10-22T00:25:20.173Z,14.13
2022-10-22T00:26:20.198Z,14.11
2022-10-22T00:27:20.225Z,14.11
2022-10-22T00:28:20.253Z,14.06
2022-10-22T00:29:20.281Z,14.05
2022-10-22T00:30:20.310Z,14.06
2022-10-22T00:31:20.340Z,14.08
2022-10-22T00:32:20.361Z,14.05
2022-10-22T00:33:20.392Z,14.08
2022-10-22T00:34:20.418Z,14.09
2022-10-22T00:35:20.446Z,14.01
2022-10-22T00:36:20.472Z,14.05
2022-10-22T00:37:20.500Z,13.97
2022-10-22T00:38:20.528Z,13.99
2022-10-22T00:39:20.573Z,14.02
2022-10-22T00:40:20.585Z,14.05
2022-10-22T00:41:20.610Z,14.01
2022-10-22T00:42:20.636Z,14.05
2022-10-22T00:43:20.665Z,14.05
2022-10-22T00:44:20.689Z,14.12
2022-10-22T00:45:20.723Z,14.09
2022-10-22T00:46:20.746Z,14.12
2022-10-22T00:47:20.774Z,14.12
2022-10-22T00:48:20.800Z,14.12
2022-10-22T00:49:20.830Z,14.11
2022-10-22T00:50:20.856Z,14.11
2022-10-22T00:51:20.885Z,14.20
2022-10-22T00:52:20.911Z,14.12
2022-10-22T00:53:20.936Z,14.12
2022-10-22T00:54:20.967Z,14.08
2022-10-22T00:55:21.010Z,14.15
2022-10-22T00:56:21.022Z,14.11
2022-10-22T00:57:21.048Z,14.11
2022-10-22T00:58:21.078Z,14.16
2022-10-22T00:59:21.103Z,14.20
2022-10-22T01:00:21.131Z,14.13
2022-10-22T01:01:21.181Z,14.11
2022-10-22T01:02:21.188Z,14.16
2022-10-22T01:03:21.230Z,14.16
2022-10-22T01:04:21.241Z,14.16
2022-10-22T01:05:21.269Z,14.15
2022-10-22T01:06:21.323Z,14.12
2022-10-22T01:07:21.322Z,14.16
2022-10-22T01:08:21.351Z,14.21
2022-10-22T01:09:21.377Z,14.19
2022-10-22T01:10:21.407Z,14.21
2022-10-22T01:11:21.452Z,14.23
2022-10-22T01:12:21.462Z,14.16
2022-10-22T01:13:21.487Z,14.23
2022-10-22T01:14:21.517Z,14.23
2022-10-22T01:15:21.542Z,14.21
2022-10-22T01:16:21.571Z,14.24
2022-10-22T01:18:21.628Z,14.23
2022-10-22T01:19:21.652Z,14.21
2022-10-22T01:20:21.682Z,14.19
2022-10-22T01:21:21.708Z,14.21
2022-10-22T01:22:21.737Z,14.23
2022-10-22T01:23:21.764Z,14.24
2022-10-22T01:24:21.792Z,14.19
2022-10-22T01:25:21.843Z,14.16
2022-10-22T01:27:21.891Z,14.09
2022-10-22T01:28:21.902Z,14.08
2022-10-22T01:29:21.928Z,14.12
2022-10-22T01:30:21.960Z,14.15
2022-10-22T01:31:21.985Z,14.19
2022-10-22T01:32:22.011Z,14.08
2022-10-22T01:33:22.037Z,14.08
2022-10-22T01:34:22.067Z,13.99
2022-10-22T01:35:22.189Z,14.09
2022-10-22T01:36:22.122Z,14.05
2022-10-22T01:37:22.149Z,14.03
2022-10-22T01:38:22.177Z,14.08
2022-10-22T01:39:22.202Z,14.06
2022-10-22T01:40:22.235Z,14.09
2022-10-22T01:41:22.260Z,14.03
2022-10-22T01:42:22.288Z,14.03
2022-10-22T01:43:22.329Z,14.03
2022-10-22T01:44:22.374Z,14.05
2022-10-22T01:45:22.367Z,14.01
2022-10-22T01:46:22.399Z,14.03
2022-10-22T01:47:22.422Z,14.02
2022-10-22T01:48:22.453Z,14.03
2022-10-22T01:49:22.477Z,14.05
2022-10-22T01:50:22.507Z,14.08
2022-10-22T01:51:22.566Z,14.01
2022-10-22T01:52:22.561Z,13.97
2022-10-22T01:53:22.586Z,13.97
2022-10-22T01:54:22.617Z,14.03
2022-10-22T01:55:22.642Z,13.99
2022-10-22T01:56:22.672Z,13.99
2022-10-22T01:57:22.697Z,14.02
2022-10-22T01:58:22.725Z,14.05
2022-10-22T01:59:22.770Z,14.06
2022-10-22T02:00:22.781Z,14.20
2022-10-22T02:01:22.807Z,14.15
2022-10-22T02:02:22.835Z,14.15
2022-10-22T02:03:23.820Z,14.11
2022-10-22T02:04:22.893Z,14.03
2022-10-22T02:05:22.917Z,14.15
2022-10-22T02:06:22.946Z,14.13
2022-10-22T02:07:22.972Z,14.13
2022-10-22T02:08:23.001Z,14.11
2022-10-22T02:09:23.027Z,14.11
2022-10-22T02:10:23.056Z,14.11
2022-10-22T02:11:23.080Z,14.09
2022-10-22T02:12:23.110Z,14.02
2022-10-22T02:13:23.137Z,14.01
2022-10-22T02:14:23.167Z,14.02
2022-10-22T02:15:23.210Z,14.05
2022-10-22T02:16:23.220Z,14.03
2022-10-22T02:17:23.244Z,13.99
2022-10-22T02:18:23.275Z,14.05
2022-10-22T02:19:23.300Z,14.03
2022-10-22T02:20:23.329Z,14.01
2022-10-22T02:21:23.357Z,14.06
2022-10-22T02:22:23.384Z,14.09
2022-10-22T02:23:23.409Z,14.05
2022-10-22T02:24:23.438Z,14.09
2022-10-22T02:25:23.467Z,14.08
2022-10-22T02:26:23.495Z,14.13
2022-10-22T02:27:26.048Z,14.15
2022-10-22T02:28:23.548Z,14.20
2022-10-22T02:29:23.575Z,14.15
2022-10-22T02:30:23.606Z,14.15
2022-10-22T02:31:23.647Z,14.11
2022-10-22T02:32:23.658Z,14.09
2022-10-22T02:33:23.685Z,14.08
2022-10-22T02:34:23.715Z,14.08
2022-10-22T02:35:23.748Z,14.09
2022-10-22T02:36:23.770Z,13.97
2022-10-22T02:37:23.795Z,14.05
2022-10-22T02:38:23.823Z,13.97
2022-10-22T02:39:23.850Z,14.08
2022-10-22T02:40:23.880Z,14.06
2022-10-22T02:41:23.904Z,13.94
2022-10-22T02:42:23.935Z,14.05
2022-10-22T02:43:23.958Z,14.02
2022-10-22T02:44:23.988Z,14.08
2022-10-22T02:45:24.016Z,14.05
2022-10-22T02:46:24.043Z,14.06
2022-10-22T02:47:24.087Z,13.97
2022-10-22T02:48:24.119Z,13.91
2022-10-22T02:49:24.123Z,13.91
2022-10-22T02:50:24.154Z,13.97
2022-10-22T02:51:24.177Z,13.95
2022-10-22T02:52:24.209Z,13.93
2022-10-22T02:53:24.232Z,13.86
2022-10-22T02:54:24.262Z,13.88
2022-10-22T02:55:24.287Z,13.83
2022-10-22T02:56:24.318Z,13.84
2022-10-22T02:57:24.342Z,13.81
2022-10-22T02:58:24.371Z,13.78
2022-10-22T02:59:24.397Z,13.75
2022-10-22T03:00:24.425Z,13.79
2022-10-22T03:01:24.456Z,13.78
2022-10-22T03:02:24.483Z,13.65
2022-10-22T03:03:24.524Z,13.72
2022-10-22T03:04:24.538Z,13.70
2022-10-22T03:05:24.561Z,13.62
2022-10-22T03:07:24.625Z,13.69
2022-10-22T03:08:24.645Z,13.66
2022-10-22T03:09:24.986Z,13.72
2022-10-22T03:10:24.714Z,13.70
2022-10-22T03:11:24.727Z,13.69
2022-10-22T03:12:24.756Z,13.79
2022-10-22T03:13:24.793Z,13.76
2022-10-22T03:14:24.816Z,13.79
2022-10-22T03:15:24.874Z,13.68
2022-10-22T03:16:24.871Z,13.69
2022-10-22T03:17:24.891Z,13.66
2022-10-22T03:18:24.919Z,13.66
2022-10-22T03:19:24.965Z,13.63
2022-10-22T03:20:24.973Z,13.58
2022-10-22T03:21:25.007Z,13.54
2022-10-22T03:22:25.032Z,13.55
2022-10-22T03:23:25.053Z,13.57
2022-10-22T03:24:25.089Z,13.53
2022-10-22T03:25:25.107Z,13.42
2022-10-22T03:26:25.141Z,13.37
2022-10-22T03:27:25.161Z,13.47
2022-10-22T03:28:25.192Z,13.44
2022-10-22T03:29:25.217Z,13.44
2022-10-22T03:30:25.246Z,13.35
2022-10-22T03:31:25.271Z,13.28
2022-10-22T03:32:25.300Z,13.35
2022-10-22T03:33:25.325Z,13.29
2022-10-22T03:34:25.355Z,13.28
2022-10-22T03:35:25.398Z,13.16
2022-10-22T03:36:25.413Z,13.19
2022-10-22T03:37:25.435Z,13.21
2022-10-22T03:38:25.463Z,13.20
2022-10-22T03:39:25.490Z,13.19
2022-10-22T03:40:25.518Z,13.14
2022-10-22T03:41:25.543Z,13.09
2022-10-22T03:42:25.572Z,13.13
2022-10-22T03:43:25.597Z,13.06
2022-10-22T03:44:25.626Z,13.06
2022-10-22T03:45:25.737Z,13.06
2022-10-22T03:46:25.681Z,13.03
2022-10-22T03:47:25.705Z,13.14
2022-10-22T03:48:25.734Z,13.10
2022-10-22T03:49:25.759Z,13.10
2022-10-22T03:50:25.793Z,13.10
2022-10-22T03:51:25.834Z,13.17
2022-10-22T03:52:25.844Z,12.99
2022-10-22T03:53:25.869Z,13.03
2022-10-22T03:54:25.969Z,13.02
2022-10-22T03:55:25.921Z,12.99
2022-10-22T03:56:25.963Z,12.98
2022-10-22T03:57:25.976Z,12.89
2022-10-22T03:58:26.006Z,12.92
2022-10-22T03:59:26.031Z,12.95
2022-10-22T04:00:26.059Z,12.98
2022-10-22T04:01:26.147Z,12.95
2022-10-22T04:02:26.116Z,12.95
2022-10-22T04:03:26.138Z,12.94
2022-10-22T04:04:26.166Z,12.86
2022-10-22T04:05:26.195Z,12.95
2022-10-22T04:06:26.221Z,12.92
2022-10-22T04:07:26.265Z,12.86
2022-10-22T04:08:26.275Z,12.88
2022-10-22T04:09:26.299Z,12.86
2022-10-22T04:10:26.328Z,12.88
2022-10-22T04:11:26.353Z,12.86
2022-10-22T04:12:26.383Z,12.91
2022-10-22T04:13:26.412Z,12.89
2022-10-22T04:14:26.437Z,12.84
2022-10-22T04:15:26.462Z,12.89
2022-10-22T04:16:28.751Z,12.91
2022-10-22T04:17:26.515Z,12.92
2022-10-22T04:18:26.545Z,12.84
2022-10-22T04:19:26.571Z,12.84
2022-10-22T04:20:26.613Z,12.86
2022-10-22T04:21:26.623Z,12.89
2022-10-22T04:22:26.653Z,12.86
2022-10-22T04:23:26.694Z,12.91
2022-10-22T04:24:26.706Z,12.91
2022-10-22T04:25:26.731Z,12.86
2022-10-22T04:26:26.760Z,13.03
2022-10-22T04:27:26.786Z,13.07
2022-10-22T04:28:26.813Z,13.17
2022-10-22T04:29:26.839Z,13.17
2022-10-22T04:30:26.866Z,13.20
2022-10-22T04:31:26.894Z,13.21
2022-10-22T04:32:26.921Z,13.13
2022-10-22T04:33:26.946Z,13.17
2022-10-22T04:34:26.976Z,13.07
2022-10-22T04:35:27.011Z,13.06
2022-10-22T04:36:27.027Z,13.09
2022-10-22T04:37:27.054Z,13.03
2022-10-22T04:38:27.083Z,13.01
2022-10-22T04:39:27.126Z,13.13
2022-10-22T04:40:27.135Z,13.13
2022-10-22T04:41:27.164Z,13.10
2022-10-22T04:42:27.193Z,13.11
2022-10-22T04:43:27.215Z,13.10
2022-10-22T04:44:27.249Z,13.09
2022-10-22T04:45:27.268Z,13.17
2022-10-22T04:46:27.296Z,13.16
2022-10-22T04:47:27.321Z,13.13
2022-10-22T04:48:27.352Z,13.11
2022-10-22T04:49:27.375Z,13.13
2022-10-22T04:50:27.405Z,13.03
2022-10-22T04:51:27.429Z,13.01
2022-10-22T04:52:27.460Z,13.03
2022-10-22T04:53:27.484Z,13.13
2022-10-22T04:54:30.509Z,13.19
2022-10-22T04:55:27.603Z,13.16
2022-10-22T04:56:27.566Z,13.10
2022-10-22T04:57:27.591Z,13.09
2022-10-22T04:58:27.620Z,13.03
2022-10-22T04:59:27.645Z,13.10
2022-10-22T05:00:27.672Z,12.92
2022-10-22T05:01:27.848Z,12.98
2022-10-22T05:02:27.727Z,12.89
2022-10-22T05:03:27.753Z,12.91
2022-10-22T05:04:27.780Z,12.77
2022-10-22T05:05:27.805Z,12.84
2022-10-22T05:06:27.834Z,12.81
2022-10-22T05:07:27.863Z,12.76
2022-10-22T05:08:27.885Z,12.83
2022-10-22T05:09:27.915Z,12.62
2022-10-22T05:10:27.938Z,12.73
2022-10-22T05:11:27.986Z,12.74
2022-10-22T05:12:27.993Z,12.65
2022-10-22T05:13:28.021Z,12.69
2022-10-22T05:14:28.051Z,12.65
2022-10-22T05:15:28.075Z,12.61
2022-10-22T05:16:28.100Z,12.58
2022-10-22T05:17:28.129Z,12.58
2022-10-22T05:18:28.154Z,12.55
2022-10-22T05:19:28.182Z,12.56
2022-10-22T05:20:28.206Z,12.56
2022-10-22T05:21:28.239Z,12.74
2022-10-22T05:22:28.260Z,12.84
2022-10-22T05:23:28.289Z,12.80
2022-10-22T05:24:28.316Z,12.89
2022-10-22T05:25:28.342Z,12.76
2022-10-22T05:26:28.369Z,12.81
2022-10-22T05:27:28.413Z,12.76
2022-10-22T05:28:28.420Z,12.69
2022-10-22T05:29:28.447Z,12.73
2022-10-22T05:30:28.476Z,12.73
2022-10-22T05:31:28.509Z,12.73
2022-10-22T05:32:28.527Z,12.66
2022-10-22T05:33:28.556Z,12.66
2022-10-22T05:34:28.580Z,12.62
2022-10-22T05:35:28.607Z,12.58
2022-10-22T05:36:28.634Z,12.63
2022-10-22T05:37:28.663Z,12.59
2022-10-22T05:38:28.687Z,12.56
2022-10-22T05:39:28.715Z,12.51
2022-10-22T05:40:31.112Z,12.40
2022-10-22T05:41:28.767Z,12.51
2022-10-22T05:42:28.794Z,12.44
2022-10-22T05:43:28.842Z,12.41
2022-10-22T05:44:28.846Z,12.29
2022-10-22T05:45:28.875Z,12.37
2022-10-22T05:46:28.917Z,12.29
2022-10-22T05:47:28.927Z,12.25
2022-10-22T05:48:28.981Z,12.33
2022-10-22T05:49:28.989Z,12.25
2022-10-22T05:50:29.005Z,12.23
2022-10-22T05:51:29.035Z,12.22
2022-10-22T05:52:29.058Z,12.19
2022-10-22T05:53:29.087Z,12.08
2022-10-22T05:54:29.112Z,12.11
2022-10-22T05:55:29.140Z,12.11
2022-10-22T05:56:29.165Z,12.01
2022-10-22T05:57:29.194Z,12.05
2022-10-22T05:58:29.218Z,11.86
2022-10-22T05:59:29.270Z,12.08
2022-10-22T06:00:29.338Z,11.94
2022-10-22T06:01:29.301Z,11.95
2022-10-22T06:02:29.392Z,11.94
2022-10-22T06:03:29.354Z,11.85
2022-10-22T06:04:29.378Z,11.86
2022-10-22T06:05:29.406Z,11.91
2022-10-22T06:06:29.431Z,11.79
2022-10-22T06:07:29.458Z,11.85
2022-10-22T06:08:29.482Z,11.84
2022-10-22T06:09:29.577Z,11.86
2022-10-22T06:10:29.536Z,11.78
2022-10-22T06:11:32.533Z,11.98
2022-10-22T06:12:29.589Z,11.94
2022-10-22T06:13:29.617Z,11.89
2022-10-22T06:14:29.642Z,11.94
2022-10-22T06:15:29.692Z,11.84
2022-10-22T06:16:29.695Z,11.97
2022-10-22T06:17:29.722Z,12.07
2022-10-22T06:18:29.747Z,12.20
2022-10-22T06:19:29.775Z,12.23
2022-10-22T06:20:29.800Z,12.25
2022-10-22T06:21:29.828Z,12.40
2022-10-22T06:22:29.853Z,12.45
2022-10-22T06:23:29.882Z,12.38
2022-10-22T06:24:29.906Z,12.51
2022-10-22T06:25:29.940Z,12.52
2022-10-22T06:26:29.959Z,12.63
2022-10-22T06:27:29.989Z,12.71
2022-10-22T06:28:30.016Z,12.78
2022-10-22T06:29:30.042Z,12.94
2022-10-22T06:30:30.066Z,12.96
2022-10-22T06:31:30.111Z,13.01
2022-10-22T06:32:30.118Z,13.07
2022-10-22T06:33:30.146Z,13.16
2022-10-22T06:34:30.171Z,13.17
2022-10-22T06:35:30.199Z,13.25
2022-10-22T06:36:30.277Z,13.29
2022-10-22T06:37:30.254Z,13.39
2022-10-22T06:38:30.282Z,13.44
2022-10-22T06:39:30.306Z,13.42
2022-10-22T06:40:30.332Z,13.55
2022-10-22T06:41:30.361Z,13.54
2022-10-22T06:42:30.388Z,13.55
2022-10-22T06:43:30.414Z,13.60
2022-10-22T06:44:30.439Z,13.55
2022-10-22T06:45:30.468Z,13.62
2022-10-22T06:46:30.493Z,13.69
2022-10-22T06:47:30.540Z,13.70
2022-10-22T06:48:30.549Z,13.73
2022-10-22T06:49:30.576Z,13.78
2022-10-22T06:50:30.602Z,13.76
2022-10-22T06:51:30.629Z,13.94
2022-10-22T06:52:30.657Z,13.93
2022-10-22T06:53:30.686Z,14.01
2022-10-22T06:54:30.709Z,13.93
2022-10-22T06:55:30.737Z,13.97
2022-10-22T06:56:30.765Z,13.95
2022-10-22T06:57:30.792Z,13.99
2022-10-22T06:58:30.819Z,14.03
2022-10-22T06:59:30.847Z,13.99
2022-10-22T07:00:30.967Z,14.05
2022-10-22T07:01:31.208Z,14.03
2022-10-22T07:02:30.928Z,14.01
2022-10-22T07:03:30.974Z,14.03
2022-10-22T07:04:30.981Z,14.08
2022-10-22T07:05:31.010Z,14.03
2022-10-22T07:06:31.036Z,14.06
2022-10-22T07:07:31.064Z,13.95
2022-10-22T07:08:31.126Z,13.95
2022-10-22T07:09:31.120Z,13.97
2022-10-22T07:10:31.147Z,13.93
2022-10-22T07:11:31.185Z,13.91
2022-10-22T07:12:31.203Z,13.97
2022-10-22T07:13:31.230Z,13.97
2022-10-22T07:14:31.254Z,13.94
2022-10-22T07:15:31.283Z,13.97
2022-10-22T07:16:32.580Z,13.91
2022-10-22T07:17:31.364Z,14.01
2022-10-22T07:18:31.371Z,13.91
2022-10-22T07:19:31.419Z,13.84
2022-10-22T07:20:31.420Z,13.86
2022-10-22T07:21:31.448Z,13.88
2022-10-22T07:22:31.474Z,13.91
2022-10-22T07:23:31.503Z,13.90
2022-10-22T07:24:31.539Z,13.90
2022-10-22T07:25:31.558Z,13.95
2022-10-22T07:26:31.584Z,13.94
2022-10-22T07:27:31.612Z,13.93
2022-10-22T07:28:31.639Z,13.93
2022-10-22T07:29:31.666Z,13.90
2022-10-22T07:30:31.694Z,13.94
2022-10-22T07:31:31.722Z,13.91
2022-10-22T07:32:31.746Z,13.93
2022-10-22T07:33:31.777Z,13.97
2022-10-22T07:34:31.803Z,13.97
2022-10-22T07:35:31.849Z,14.03
2022-10-22T07:36:31.856Z,14.06
2022-10-22T07:37:31.887Z,14.15
2022-10-22T07:38:31.913Z,14.26
2022-10-22T07:39:31.940Z,14.21
2022-10-22T07:40:31.967Z,14.23
2022-10-22T07:41:31.999Z,14.27
2022-10-22T07:42:32.039Z,14.45
2022-10-22T07:43:32.053Z,14.45
2022-10-22T07:44:32.075Z,14.63
2022-10-22T07:45:32.104Z,14.74
2022-10-22T07:46:32.130Z,14.77
2022-10-22T07:47:32.160Z,14.83
2022-10-22T07:48:32.186Z,14.87
2022-10-22T07:49:32.215Z,14.98
2022-10-22T07:50:32.286Z,15.12
2022-10-22T07:51:32.288Z,15.08
2022-10-22T07:52:32.296Z,15.25
2022-10-22T07:53:32.332Z,15.34
2022-10-22T07:54:32.352Z,15.33
2022-10-22T07:55:32.381Z,15.44
2022-10-22T07:56:32.406Z,15.44
2022-10-22T07:57:32.436Z,15.45
2022-10-22T07:58:32.467Z,15.55
2022-10-22T07:59:32.492Z,15.56
2022-10-22T08:00:32.521Z,15.59
2022-10-22T08:01:32.594Z,15.59
2022-10-22T08:02:32.574Z,15.73
2022-10-22T08:03:32.603Z,15.71
2022-10-22T08:04:32.631Z,15.71
2022-10-22T08:05:32.662Z,15.58
2022-10-22T08:06:32.689Z,15.56
2022-10-22T08:07:32.739Z,15.58
2022-10-22T08:08:32.814Z,15.60
2022-10-22T08:09:32.773Z,15.58
2022-10-22T08:10:32.800Z,15.71
2022-10-22T08:11:32.829Z,15.73
2022-10-22T08:12:32.861Z,15.67
2022-10-22T08:13:32.886Z,15.68
2022-10-22T08:14:32.913Z,15.65
2022-10-22T08:15:32.952Z,15.75
2022-10-22T08:16:32.970Z,15.83
2022-10-22T08:17:32.999Z,15.92
2022-10-22T08:18:33.027Z,15.92
2022-10-22T08:19:33.055Z,16.10
2022-10-22T08:20:33.088Z,16.16
2022-10-22T08:21:33.114Z,16.29
2022-10-22T08:22:33.139Z,16.47
2022-10-22T08:23:33.189Z,16.49
2022-10-22T08:24:33.198Z,16.52
2022-10-22T08:25:33.227Z,16.59
2022-10-22T08:26:33.268Z,16.69
2022-10-22T08:27:33.284Z,16.63
2022-10-22T08:28:33.310Z,16.66
2022-10-22T08:29:33.341Z,16.67
2022-10-22T08:30:33.369Z,16.69
2022-10-22T08:31:33.399Z,16.69
2022-10-22T08:32:33.428Z,16.69
2022-10-22T08:33:33.457Z,16.67
2022-10-22T08:34:33.483Z,16.69
2022-10-22T08:35:33.513Z,16.63
2022-10-22T08:36:33.543Z,16.70
2022-10-22T08:37:33.571Z,16.67
2022-10-22T08:38:33.600Z,16.65
2022-10-22T08:39:33.651Z,16.63
2022-10-22T08:40:33.661Z,16.55
2022-10-22T08:41:33.688Z,16.51
2022-10-22T08:42:33.716Z,16.52
2022-10-22T08:43:33.745Z,16.49
2022-10-22T08:44:33.773Z,16.49
2022-10-22T08:45:33.803Z,16.42
2022-10-22T08:46:33.830Z,16.47
2022-10-22T08:47:33.863Z,16.42
2022-10-22T08:48:33.886Z,16.45
2022-10-22T08:49:36.058Z,16.44
2022-10-22T08:50:33.946Z,16.48
2022-10-22T08:51:33.975Z,16.47
2022-10-22T08:52:34.002Z,16.55
2022-10-22T08:53:34.033Z,16.54
2022-10-22T08:54:34.062Z,16.65
2022-10-22T08:55:37.244Z,16.66
2022-10-22T08:56:34.117Z,16.77
2022-10-22T08:57:34.180Z,16.70
2022-10-22T08:58:34.175Z,16.76
2022-10-22T08:59:34.207Z,16.85
2022-10-22T09:00:34.234Z,16.76
2022-10-22T09:01:34.264Z,16.94
2022-10-22T09:02:34.294Z,16.95
2022-10-22T09:03:34.322Z,16.99
2022-10-22T09:04:34.348Z,16.99
2022-10-22T09:05:34.379Z,17.03
2022-10-22T09:06:34.408Z,17.05
2022-10-22T09:07:34.437Z,17.17
2022-10-22T09:08:34.495Z,17.20
2022-10-22T09:09:34.496Z,17.15
2022-10-22T09:10:34.523Z,17.21
2022-10-22T09:11:34.592Z,17.21
2022-10-22T09:12:34.581Z,17.17
2022-10-22T09:13:34.612Z,17.24
2022-10-22T09:14:34.640Z,17.20
2022-10-22T09:15:34.670Z,17.21
2022-10-22T09:16:34.701Z,17.17
2022-10-22T09:17:34.728Z,17.22
2022-10-22T09:18:34.757Z,17.24
2022-10-22T09:19:34.786Z,17.28
2022-10-22T09:20:34.815Z,17.32
2022-10-22T09:21:34.845Z,17.39
2022-10-22T09:23:34.903Z,17.42
2022-10-22T09:24:34.941Z,17.46
2022-10-22T09:25:34.962Z,17.39
2022-10-22T09:26:34.999Z,17.49
2022-10-22T09:27:35.038Z,17.45
2022-10-22T09:28:35.055Z,17.49
2022-10-22T09:29:35.079Z,17.42
2022-10-22T09:30:35.114Z,17.45
2022-10-22T09:31:35.145Z,17.45
2022-10-22T09:32:35.168Z,17.45
2022-10-22T09:33:35.194Z,17.43
2022-10-22T09:34:35.227Z,17.49
2022-10-22T09:35:35.255Z,17.55
2022-10-22T09:36:35.287Z,17.54
2022-10-22T09:37:35.314Z,17.46
2022-10-22T09:38:35.344Z,17.50
2022-10-22T09:39:35.371Z,17.42
2022-10-22T09:40:35.402Z,17.49
2022-10-22T09:41:35.430Z,17.49
2022-10-22T09:42:35.461Z,17.46
2022-10-22T09:43:35.506Z,17.45
2022-10-22T09:44:35.520Z,17.38
2022-10-22T09:45:35.548Z,17.40
2022-10-22T09:46:35.582Z,17.42
2022-10-22T09:47:57.310Z,17.40
2022-10-22T09:48:35.637Z,17.43
2022-10-22T09:49:35.666Z,17.47
2022-10-22T09:50:35.696Z,17.42
2022-10-22T09:51:35.726Z,17.47
2022-10-22T09:52:35.754Z,17.57
2022-10-22T09:53:35.783Z,17.68
2022-10-22T09:54:35.817Z,17.65
2022-10-22T09:55:35.842Z,17.73
2022-10-22T09:56:35.872Z,17.68
2022-10-22T09:57:37.209Z,17.71
2022-10-22T09:58:35.933Z,17.74
2022-10-22T09:59:35.976Z,17.76
2022-10-22T10:00:35.991Z,17.77
2022-10-22T10:01:36.018Z,17.76
2022-10-22T10:02:39.351Z,17.79
2022-10-22T10:03:36.077Z,17.80
2022-10-22T10:04:36.110Z,17.79
2022-10-22T10:05:36.135Z,17.83
2022-10-22T10:06:36.168Z,17.80
2022-10-22T10:07:36.195Z,17.80
2022-10-22T10:08:36.267Z,17.83
2022-10-22T10:09:36.254Z,17.77
2022-10-22T10:10:36.285Z,17.76
2022-10-22T10:11:36.312Z,17.79
2022-10-22T10:12:36.463Z,17.83
2022-10-22T10:13:36.373Z,17.80
2022-10-22T10:14:36.403Z,17.71
2022-10-22T10:15:36.448Z,17.80
2022-10-22T10:16:36.463Z,17.83
2022-10-22T10:17:36.488Z,17.77
2022-10-22T10:18:36.522Z,17.79
2022-10-22T10:19:36.550Z,17.76
2022-10-22T10:20:36.579Z,17.74
2022-10-22T10:21:36.607Z,17.77
2022-10-22T10:22:36.639Z,17.76
2022-10-22T10:23:36.666Z,17.83
2022-10-22T10:24:36.697Z,17.88
2022-10-22T10:25:36.725Z,17.79
2022-10-22T10:26:36.755Z,17.84
2022-10-22T10:27:36.785Z,17.87
2022-10-22T10:28:36.815Z,17.88
2022-10-22T10:30:36.875Z,18.02
2022-10-22T10:31:36.921Z,17.99
2022-10-22T10:32:36.933Z,17.92
2022-10-22T10:33:36.962Z,17.92
2022-10-22T10:34:36.993Z,17.92
2022-10-22T10:35:37.021Z,17.83
2022-10-22T10:36:37.052Z,17.87
2022-10-22T10:37:37.081Z,17.98
2022-10-22T10:38:37.112Z,17.96
2022-10-22T10:39:37.138Z,18.01
2022-10-22T10:40:37.170Z,18.02
2022-10-22T10:41:37.198Z,17.98
2022-10-22T10:42:37.233Z,18.02
2022-10-22T10:43:37.257Z,17.99
2022-10-22T10:44:37.288Z,17.96
2022-10-22T10:45:37.317Z,17.98
2022-10-22T10:46:37.403Z,18.08
2022-10-22T10:47:37.395Z,18.23
2022-10-22T10:48:37.408Z,18.20
2022-10-22T10:49:37.435Z,18.29
2022-10-22T10:50:37.467Z,18.31
2022-10-22T10:51:37.493Z,18.39
2022-10-22T10:52:37.526Z,18.38
2022-10-22T10:53:37.555Z,18.50
2022-10-22T10:55:37.614Z,18.61
2022-10-22T10:56:39.198Z,18.60
2022-10-22T10:57:37.816Z,18.59
2022-10-22T10:58:37.706Z,18.65
2022-10-22T10:59:37.735Z,18.61
2022-10-22T11:00:37.765Z,18.61
2022-10-22T11:01:37.827Z,18.59
2022-10-22T11:02:37.825Z,18.69
2022-10-22T11:03:37.873Z,18.71
2022-10-22T11:04:37.885Z,18.71
2022-10-22T11:05:37.913Z,18.68
2022-10-22T11:06:37.946Z,18.65
2022-10-22T11:07:37.973Z,18.68
2022-10-22T11:08:38.086Z,18.68
2022-10-22T11:09:38.033Z,18.59
2022-10-22T11:10:38.064Z,18.59
2022-10-22T11:11:38.093Z,18.60
2022-10-22T11:12:38.275Z,18.50
2022-10-22T11:13:38.154Z,18.53
2022-10-22T11:14:38.184Z,18.54
2022-10-22T11:15:38.214Z,18.50
2022-10-22T11:16:38.244Z,18.49
2022-10-22T11:17:38.274Z,18.49
2022-10-22T11:18:38.310Z,18.50
2022-10-22T11:19:50.889Z,18.49
2022-10-22T11:20:38.366Z,18.45
2022-10-22T11:21:38.394Z,18.53
2022-10-22T11:22:38.543Z,18.51
2022-10-22T11:23:38.454Z,18.51
2022-10-22T11:24:38.484Z,18.59
2022-10-22T11:25:38.515Z,18.61
2022-10-22T11:26:38.544Z,18.69
2022-10-22T11:27:38.974Z,18.65
2022-10-22T11:28:38.604Z,18.75
2022-10-22T11:29:38.632Z,18.66
2022-10-22T11:30:38.664Z,18.65
2022-10-22T11:31:38.694Z,18.56
2022-10-22T11:32:39.087Z,18.50
2022-10-22T11:33:38.754Z,18.47
2022-10-22T11:34:38.785Z,18.51
2022-10-22T11:35:38.832Z,18.49
2022-10-22T11:36:38.848Z,18.44
2022-10-22T11:37:39.224Z,18.36
2022-10-22T11:38:38.908Z,18.47
2022-10-22T11:39:38.933Z,18.39
2022-10-22T11:40:38.964Z,18.36
2022-10-22T11:41:38.993Z,18.32
2022-10-22T11:42:39.027Z,18.42
2022-10-22T11:43:39.054Z,18.50
2022-10-22T11:44:39.116Z,18.54
2022-10-22T11:45:39.114Z,18.49
2022-10-22T11:46:39.144Z,18.50
2022-10-22T11:47:39.456Z,18.42
2022-10-22T11:48:39.205Z,18.53
2022-10-22T11:49:39.234Z,18.41
2022-10-22T11:50:39.264Z,18.41
2022-10-22T11:51:39.312Z,18.47
2022-10-22T11:52:39.324Z,18.35
2022-10-22T11:53:39.474Z,18.38
2022-10-22T11:54:39.384Z,18.34
2022-10-22T11:55:39.413Z,18.38
2022-10-22T11:56:39.445Z,18.45
2022-10-22T11:57:39.808Z,18.42
2022-10-22T11:58:39.583Z,18.34
2022-10-22T11:59:39.530Z,18.31
2022-10-22T12:00:39.563Z,18.35
2022-10-22T12:01:39.592Z,18.29
2022-10-22T12:02:39.868Z,18.27
2022-10-22T12:03:39.650Z,18.26
2022-10-22T12:04:39.755Z,18.23
2022-10-22T12:05:39.712Z,18.20
2022-10-22T12:06:39.744Z,18.16
2022-10-22T12:07:39.791Z,18.19
2022-10-22T12:08:39.848Z,18.16
2022-10-22T12:09:39.900Z,18.13
2022-10-22T12:10:39.862Z,18.08
2022-10-22T12:11:39.891Z,18.05
2022-10-22T12:12:40.230Z,18.05
2022-10-22T12:13:39.951Z,18.10
2022-10-22T12:14:39.981Z,18.11
2022-10-22T12:15:40.008Z,18.21
2022-10-22T12:16:56.587Z,18.20
2022-10-22T12:17:40.068Z,18.23
2022-10-22T12:18:40.099Z,18.23
2022-10-22T12:19:40.137Z,18.29
2022-10-22T12:20:40.158Z,18.23
2022-10-22T12:21:40.187Z,18.39
2022-10-22T12:22:40.672Z,18.31
2022-10-22T12:23:40.264Z,18.42
2022-10-22T12:24:40.278Z,18.44
2022-10-22T12:25:40.304Z,18.51
2022-10-22T12:26:40.337Z,18.61
2022-10-22T12:27:40.913Z,18.66
2022-10-22T12:28:40.397Z,18.72
2022-10-22T12:29:40.424Z,18.74
2022-10-22T12:30:40.456Z,18.76
2022-10-22T12:31:40.483Z,18.71
2022-10-22T12:32:40.516Z,18.59
2022-10-22T12:33:40.544Z,18.61
2022-10-22T12:34:40.613Z,18.72
2022-10-22T12:35:40.603Z,18.81
2022-10-22T12:36:40.635Z,18.78
2022-10-22T12:37:41.131Z,18.75
2022-10-22T12:38:40.696Z,18.65
2022-10-22T12:39:40.743Z,18.79
2022-10-22T12:40:44.475Z,18.74
2022-10-22T12:41:40.785Z,18.78
2022-10-22T12:42:40.818Z,18.87
2022-10-22T12:43:40.842Z,18.90
2022-10-22T12:44:40.875Z,18.84
2022-10-22T12:45:40.902Z,18.94
2022-10-22T12:46:40.936Z,18.97
2022-10-22T12:47:41.155Z,19.12
2022-10-22T12:48:40.994Z,18.99
2022-10-22T12:49:41.024Z,19.16
2022-10-22T12:50:41.061Z,19.20
2022-10-22T12:51:41.082Z,19.32
2022-10-22T12:52:41.387Z,19.31
2022-10-22T12:53:41.143Z,19.31
2022-10-22T12:54:41.175Z,19.35
2022-10-22T12:55:41.430Z,19.34
2022-10-22T12:56:41.235Z,19.25
2022-10-22T12:57:41.265Z,19.28
2022-10-22T12:58:41.296Z,19.12